createdAt,value
2023-03-19T00:00:45.344Z,3.95
2023-03-19T00:03:12.405Z,3.58
2023-03-19T00:05:39.418Z,3.50
2023-03-19T00:08:06.715Z,3.72
2023-03-19T00:10:33.674Z,2.95
2023-03-19T00:13:00.673Z,3.40
2023-03-19T00:15:27.693Z,3.50
2023-03-19T00:17:56.720Z,3.05
2023-03-19T00:20:23.695Z,3.50
2023-03-19T00:22:50.635Z,2.90
2023-03-19T00:25:17.826Z,3.28
2023-03-19T00:27:44.848Z,3.05
2023-03-19T00:30:12.216Z,2.72
2023-03-19T00:32:39.637Z,2.67
2023-03-19T00:35:07.309Z,2.70
2023-03-19T00:37:35.134Z,2.50
2023-03-19T00:40:02.368Z,2.67
2023-03-19T00:42:29.586Z,2.95
2023-03-19T00:44:56.978Z,2.40
2023-03-19T00:47:25.260Z,2.40
2023-03-19T00:49:52.317Z,2.30
2023-03-19T00:52:19.512Z,2.45
2023-03-19T00:54:46.455Z,2.00
2023-03-19T00:57:13.800Z,2.88
2023-03-19T00:59:40.822Z,2.30
2023-03-19T01:02:07.947Z,2.33
2023-03-19T01:04:34.972Z,2.10
2023-03-19T01:07:02.019Z,2.90
2023-03-19T01:09:29.108Z,2.42
2023-03-19T01:11:56.454Z,2.75
2023-03-19T01:14:23.561Z,2.03
2023-03-19T01:16:51.234Z,2.17
2023-03-19T01:19:18.210Z,1.73
2023-03-19T01:21:46.677Z,2.00
2023-03-19T01:24:17.761Z,2.35
2023-03-19T01:26:47.595Z,2.20
2023-03-19T01:29:27.924Z,2.35
2023-03-19T01:31:57.437Z,2.10
2023-03-19T01:34:35.566Z,2.15
2023-03-19T01:37:08.666Z,2.17
2023-03-19T01:39:35.713Z,2.85
2023-03-19T01:42:07.461Z,2.35
2023-03-19T01:44:40.340Z,3.00
2023-03-19T01:47:31.610Z,2.55
2023-03-19T01:50:55.300Z,2.28
2023-03-19T01:53:32.840Z,3.25
2023-03-19T01:56:21.916Z,2.90
2023-03-19T01:59:29.542Z,3.25
2023-03-19T02:02:34.147Z,3.17
2023-03-19T02:05:15.852Z,3.22
2023-03-19T02:07:46.126Z,3.35
2023-03-19T02:10:17.006Z,3.50
2023-03-19T02:12:44.932Z,3.05
2023-03-19T02:15:12.154Z,3.17
2023-03-19T02:17:40.621Z,3.05
2023-03-19T02:20:08.723Z,3.10
2023-03-19T02:22:38.992Z,2.50
2023-03-19T02:25:09.921Z,2.45
2023-03-19T02:27:37.834Z,2.65
2023-03-19T02:30:21.696Z,2.65
2023-03-19T02:32:49.091Z,2.63
2023-03-19T02:35:16.249Z,2.35
2023-03-19T02:37:43.373Z,2.03
2023-03-19T02:40:21.885Z,2.28
2023-03-19T02:42:48.879Z,1.92
2023-03-19T02:45:17.120Z,2.05
2023-03-19T02:47:44.164Z,2.30
2023-03-19T02:50:12.207Z,2.20
2023-03-19T02:52:39.567Z,2.38
2023-03-19T02:55:08.081Z,2.20
2023-03-19T02:57:35.498Z,2.60
2023-03-19T03:00:04.356Z,2.10
2023-03-19T03:02:31.873Z,2.35
2023-03-19T03:04:58.973Z,2.50
2023-03-19T03:07:27.180Z,2.30
2023-03-19T03:09:54.239Z,2.60
2023-03-19T03:12:21.241Z,2.58
2023-03-19T03:14:48.442Z,2.67
2023-03-19T03:17:15.552Z,2.20
2023-03-19T03:19:42.620Z,2.40
2023-03-19T03:22:09.942Z,2.60
2023-03-19T03:24:37.098Z,2.60
2023-03-19T03:27:04.174Z,2.75
2023-03-19T03:29:31.419Z,2.97
2023-03-19T03:31:58.455Z,2.60
2023-03-19T03:34:25.510Z,2.22
2023-03-19T03:36:52.599Z,2.92
2023-03-19T03:39:19.568Z,2.88
2023-03-19T03:41:46.589Z,2.22
2023-03-19T03:44:13.728Z,2.90
2023-03-19T03:46:43.532Z,2.75
2023-03-19T03:49:10.983Z,2.92
2023-03-19T03:51:38.015Z,2.97
2023-03-19T03:54:05.078Z,2.92
2023-03-19T03:56:33.408Z,3.28
2023-03-19T03:59:01.281Z,3.55
2023-03-19T04:01:28.407Z,3.03
2023-03-19T04:03:56.778Z,3.55
2023-03-19T04:06:27.108Z,3.47
2023-03-19T04:09:33.112Z,3.65
2023-03-19T04:12:00.493Z,3.45
2023-03-19T04:14:27.932Z,3.00
2023-03-19T04:16:56.066Z,3.65
2023-03-19T04:19:23.357Z,3.58
2023-03-19T04:21:50.468Z,3.30
2023-03-19T04:24:17.558Z,3.10
2023-03-19T04:26:47.217Z,3.50
2023-03-19T04:29:14.587Z,3.20
2023-03-19T04:31:41.957Z,3.20
2023-03-19T04:34:08.989Z,3.17
2023-03-19T04:36:35.986Z,3.10
2023-03-19T04:39:03.445Z,3.08
2023-03-19T04:41:30.519Z,2.90
2023-03-19T04:44:08.109Z,2.63
2023-03-19T04:46:36.624Z,2.67
2023-03-19T04:49:03.743Z,3.00
2023-03-19T04:51:31.086Z,3.50
2023-03-19T04:53:58.097Z,2.97
2023-03-19T04:56:25.198Z,3.45
2023-03-19T04:58:52.354Z,3.42
2023-03-19T05:01:20.049Z,3.17
2023-03-19T05:04:08.542Z,3.35
2023-03-19T05:06:38.351Z,3.70
2023-03-19T05:09:07.808Z,3.40
2023-03-19T05:11:35.075Z,3.63
2023-03-19T05:14:16.604Z,3.53
2023-03-19T05:17:11.318Z,3.60
2023-03-19T05:19:53.728Z,3.30
2023-03-19T05:22:20.958Z,3.45
2023-03-19T05:24:48.036Z,3.85
2023-03-19T05:27:15.213Z,4.03
2023-03-19T05:30:01.906Z,3.72
2023-03-19T05:32:51.852Z,3.85
2023-03-19T05:35:31.496Z,3.08
2023-03-19T05:37:59.597Z,3.85
2023-03-19T05:40:26.894Z,4.75
2023-03-19T05:42:54.710Z,4.47
2023-03-19T05:45:25.793Z,4.40
2023-03-19T05:47:55.871Z,3.75
2023-03-19T05:50:23.260Z,3.65
2023-03-19T05:53:08.747Z,4.03
2023-03-19T05:55:39.128Z,3.78
2023-03-19T05:58:09.287Z,3.83
2023-03-19T06:00:36.892Z,4.28
2023-03-19T06:03:04.663Z,3.83
2023-03-19T06:05:41.656Z,4.65
2023-03-19T06:08:23.455Z,4.05
2023-03-19T06:11:03.683Z,3.35
2023-03-19T06:13:31.352Z,3.55
2023-03-19T06:16:07.225Z,3.28
2023-03-19T06:18:47.241Z,3.20
2023-03-19T06:21:15.971Z,3.58
2023-03-19T06:23:43.986Z,3.17
2023-03-19T06:26:14.869Z,3.58
2023-03-19T06:29:02.207Z,3.63
2023-03-19T06:31:29.301Z,3.53
2023-03-19T06:34:00.146Z,6.03
2023-03-19T06:36:34.415Z,6.15
2023-03-19T06:39:03.401Z,3.80
2023-03-19T06:41:30.847Z,3.33
2023-03-19T06:44:07.544Z,3.65
2023-03-19T06:46:34.575Z,3.10
2023-03-19T06:49:01.654Z,3.40
2023-03-19T06:51:28.734Z,3.65
2023-03-19T06:53:56.726Z,2.88
2023-03-19T06:56:23.849Z,3.38
2023-03-19T06:58:50.831Z,3.80
2023-03-19T07:01:17.993Z,3.28
2023-03-19T07:03:45.085Z,3.17
2023-03-19T07:06:12.217Z,3.17
2023-03-19T07:08:39.224Z,3.40
2023-03-19T07:11:07.608Z,3.25
2023-03-19T07:13:34.716Z,3.35
2023-03-19T07:16:01.773Z,3.30
2023-03-19T07:18:28.717Z,3.30
2023-03-19T07:20:55.829Z,3.42
2023-03-19T07:23:22.920Z,3.13
2023-03-19T07:25:49.963Z,3.10
2023-03-19T07:28:16.947Z,3.25
2023-03-19T07:30:44.108Z,3.15
2023-03-19T07:33:11.232Z,3.47
2023-03-19T07:35:38.330Z,3.88
2023-03-19T07:38:05.716Z,3.30
2023-03-19T07:40:33.048Z,3.30
2023-03-19T07:43:00.217Z,3.20
2023-03-19T07:45:27.289Z,3.65
2023-03-19T07:47:54.222Z,4.22
2023-03-19T07:50:22.194Z,3.92
2023-03-19T07:52:51.705Z,3.60
2023-03-19T07:55:18.656Z,3.38
2023-03-19T07:57:45.598Z,4.63
2023-03-19T08:00:13.023Z,5.25
2023-03-19T08:02:40.212Z,4.40
2023-03-19T08:05:08.072Z,4.80
2023-03-19T08:08:27.653Z,4.07
2023-03-19T08:10:55.542Z,3.20
2023-03-19T08:13:22.832Z,3.75
2023-03-19T08:15:51.381Z,5.15
2023-03-19T08:18:18.467Z,4.70
2023-03-19T08:20:48.455Z,3.92
2023-03-19T08:23:16.214Z,3.58
2023-03-19T08:25:43.236Z,3.35
2023-03-19T08:28:10.407Z,3.50
2023-03-19T08:30:38.314Z,3.05
2023-03-19T08:33:05.561Z,3.33
2023-03-19T08:35:32.678Z,3.83
2023-03-19T08:37:59.764Z,3.38
2023-03-19T08:40:26.893Z,3.35
2023-03-19T08:42:54.459Z,3.03
2023-03-19T08:45:22.363Z,3.28
2023-03-19T08:47:49.841Z,2.83
2023-03-19T08:50:17.705Z,3.20
2023-03-19T08:52:44.790Z,3.00
2023-03-19T08:55:11.874Z,2.72
2023-03-19T08:57:38.930Z,2.70
2023-03-19T09:00:06.574Z,2.85
2023-03-19T09:02:33.626Z,2.53
2023-03-19T09:05:00.719Z,2.83
2023-03-19T09:07:27.676Z,2.65
2023-03-19T09:09:54.674Z,2.47
2023-03-19T09:12:21.730Z,2.40
2023-03-19T09:14:48.729Z,2.08
2023-03-19T09:17:15.935Z,2.25
2023-03-19T09:19:42.935Z,2.35
2023-03-19T09:22:09.904Z,2.10
2023-03-19T09:24:40.076Z,2.03
2023-03-19T09:27:07.662Z,1.95
2023-03-19T09:29:34.955Z,1.90
2023-03-19T09:32:02.026Z,2.08
2023-03-19T09:34:29.152Z,2.17
2023-03-19T09:36:56.339Z,1.75
2023-03-19T09:39:23.331Z,1.80
2023-03-19T09:42:14.382Z,1.70
2023-03-19T09:44:45.546Z,2.45
2023-03-19T09:47:18.313Z,1.88
2023-03-19T09:49:48.759Z,3.00
2023-03-19T09:52:53.421Z,2.38
2023-03-19T09:55:44.015Z,1.83
2023-03-19T09:58:20.922Z,1.75
2023-03-19T10:00:53.274Z,1.70
2023-03-19T10:03:23.260Z,2.00
2023-03-19T10:06:11.974Z,1.83
2023-03-19T10:09:21.819Z,2.17
2023-03-19T10:14:35.657Z,1.80
2023-03-19T10:17:07.314Z,1.77
2023-03-19T10:19:47.712Z,1.73
2023-03-19T10:22:37.167Z,1.98
2023-03-19T10:25:09.533Z,1.90
2023-03-19T10:27:37.495Z,1.70
2023-03-19T10:30:14.826Z,1.73
2023-03-19T10:32:44.346Z,2.20
2023-03-19T10:35:22.289Z,1.85
2023-03-19T10:37:55.254Z,1.63
2023-03-19T10:40:34.521Z,1.60
2023-03-19T10:43:28.902Z,1.73
2023-03-19T10:45:57.709Z,1.63
2023-03-19T10:48:28.186Z,1.73
2023-03-19T10:51:05.702Z,1.83
2023-03-19T10:53:33.312Z,1.48
2023-03-19T10:56:08.052Z,1.73
2023-03-19T10:58:37.095Z,1.55
2023-03-19T11:01:12.460Z,1.57
2023-03-19T11:04:00.701Z,1.65
2023-03-19T11:06:37.339Z,1.70
2023-03-19T11:09:13.601Z,1.38
2023-03-19T11:11:53.702Z,1.52
2023-03-19T11:14:20.915Z,1.90
2023-03-19T11:17:16.790Z,1.60
2023-03-19T11:19:52.695Z,1.45
2023-03-19T11:22:30.134Z,1.45
2023-03-19T11:25:01.453Z,1.50
2023-03-19T11:27:34.950Z,1.15
2023-03-19T11:30:04.137Z,1.40
2023-03-19T11:32:55.855Z,1.33
2023-03-19T11:35:28.915Z,1.40
2023-03-19T11:37:58.299Z,1.27
2023-03-19T11:40:28.182Z,1.67
2023-03-19T11:43:10.063Z,1.20
2023-03-19T11:46:07.090Z,1.60
2023-03-19T11:49:06.555Z,1.42
2023-03-19T11:52:00.828Z,1.48
2023-03-19T11:54:39.832Z,1.10
2023-03-19T11:57:15.574Z,1.30
2023-03-19T11:59:55.125Z,1.30
2023-03-19T12:02:57.352Z,1.08
2023-03-19T12:05:57.549Z,1.20
2023-03-19T12:08:45.494Z,1.40
2023-03-19T12:11:46.903Z,1.20
2023-03-19T12:14:33.771Z,1.23
2023-03-19T12:17:07.406Z,1.15
2023-03-19T12:19:40.756Z,1.30
2023-03-19T12:22:32.742Z,1.40
2023-03-19T12:25:22.663Z,1.52
2023-03-19T12:28:14.415Z,1.48
2023-03-19T12:30:41.375Z,1.40
2023-03-19T12:33:14.370Z,1.15
2023-03-19T12:35:46.269Z,1.10
2023-03-19T12:38:19.048Z,1.60
2023-03-19T12:40:49.713Z,1.60
2023-03-19T12:43:43.206Z,1.55
2023-03-19T12:46:15.105Z,1.65
2023-03-19T12:49:08.085Z,1.70
2023-03-19T12:51:39.422Z,1.38
2023-03-19T12:54:28.738Z,1.60
2023-03-19T12:57:08.726Z,1.60
2023-03-19T12:59:59.401Z,1.42
2023-03-19T13:02:38.506Z,1.63
2023-03-19T13:05:35.523Z,1.45
2023-03-19T13:08:06.926Z,1.67
2023-03-19T13:11:06.772Z,1.58
2023-03-19T13:13:39.858Z,1.58
2023-03-19T13:16:30.569Z,1.50
2023-03-19T13:19:28.430Z,1.60
2023-03-19T13:22:02.308Z,1.85
2023-03-19T13:24:35.721Z,1.83
2023-03-19T13:27:04.041Z,1.80
2023-03-19T13:29:36.963Z,1.88
2023-03-19T13:32:44.043Z,1.90
2023-03-19T13:35:26.530Z,1.65
2023-03-19T13:38:20.698Z,1.60
2023-03-19T13:40:50.523Z,1.80
2023-03-19T13:46:06.045Z,2.20
2023-03-19T13:48:33.291Z,2.08
2023-03-19T13:51:29.756Z,1.58
2023-03-19T13:54:16.381Z,1.70
2023-03-19T13:57:02.464Z,1.80
2023-03-19T13:59:33.513Z,1.92
2023-03-19T14:02:02.070Z,1.55
2023-03-19T14:04:31.937Z,1.60
2023-03-19T14:07:11.678Z,1.67
2023-03-19T14:12:40.256Z,1.90
2023-03-19T14:15:26.124Z,1.92
2023-03-19T14:18:02.618Z,1.70
2023-03-19T14:20:43.272Z,2.10
2023-03-19T14:23:17.944Z,1.60
2023-03-19T14:26:03.687Z,1.60
2023-03-19T14:28:55.230Z,1.80
2023-03-19T14:31:44.119Z,2.00
2023-03-19T14:34:22.702Z,2.03
2023-03-19T14:36:59.136Z,1.58
2023-03-19T14:39:40.609Z,1.63
2023-03-19T14:42:18.166Z,2.15
2023-03-19T14:45:26.364Z,1.70
2023-03-19T14:48:06.210Z,1.77
2023-03-19T14:53:19.247Z,1.48
2023-03-19T14:55:51.556Z,1.60
2023-03-19T14:58:22.648Z,1.58
2023-03-19T15:00:53.205Z,1.80
2023-03-19T15:03:32.453Z,1.70
2023-03-19T15:06:01.525Z,1.85
2023-03-19T15:09:42.936Z,1.75
2023-03-19T15:12:52.684Z,1.75
2023-03-19T15:15:58.102Z,2.25
2023-03-19T15:18:27.052Z,2.47
2023-03-19T15:20:55.561Z,3.38
2023-03-19T15:23:28.038Z,3.72
2023-03-19T15:26:01.571Z,3.30
2023-03-19T15:28:31.193Z,3.88
2023-03-19T15:31:19.534Z,3.85
2023-03-19T15:33:51.536Z,3.17
2023-03-19T15:36:24.384Z,2.80
2023-03-19T15:39:21.687Z,5.78
2023-03-19T15:41:50.048Z,4.32
2023-03-19T15:44:43.038Z,5.13
2023-03-19T15:47:16.034Z,4.15
2023-03-19T15:50:14.260Z,4.13
2023-03-19T15:52:45.085Z,3.13
2023-03-19T15:55:14.557Z,3.33
2023-03-19T16:02:00.228Z,3.03
2023-03-19T16:04:29.914Z,3.33
2023-03-19T16:06:58.997Z,3.53
2023-03-19T16:09:35.262Z,3.13
2023-03-19T16:12:02.462Z,3.20
2023-03-19T16:14:43.428Z,3.25
2023-03-19T16:17:15.704Z,4.07
2023-03-19T16:20:13.715Z,5.07
2023-03-19T16:22:43.604Z,4.43
2023-03-19T16:27:44.583Z,10.07
2023-03-19T16:30:21.571Z,15.02
2023-03-19T16:33:06.655Z,4.28
2023-03-19T16:35:36.778Z,4.20
2023-03-19T16:38:15.212Z,3.80
2023-03-19T16:40:43.637Z,4.22
2023-03-19T16:43:23.522Z,4.72
2023-03-19T16:48:18.846Z,3.13
2023-03-19T16:50:47.582Z,3.97
2023-03-19T16:53:29.080Z,2.97
2023-03-19T16:55:58.453Z,3.35
2023-03-19T16:58:35.099Z,3.50
2023-03-19T17:01:04.461Z,4.15
2023-03-19T17:03:31.745Z,4.10
2023-03-19T17:05:58.765Z,6.70
2023-03-19T17:08:26.412Z,7.95
2023-03-19T17:10:54.876Z,8.32
2023-03-19T17:13:28.601Z,8.93
2023-03-19T17:16:05.687Z,5.75
2023-03-19T17:18:38.069Z,6.38
2023-03-19T17:21:26.263Z,5.97
2023-03-19T17:23:53.716Z,5.68
2023-03-19T17:26:20.828Z,5.40
2023-03-19T17:28:48.879Z,4.93
2023-03-19T17:31:21.837Z,4.53
2023-03-19T17:33:49.069Z,3.65
2023-03-19T17:36:16.239Z,3.53
2023-03-19T17:38:43.311Z,3.15
2023-03-19T17:41:14.999Z,3.97
2023-03-19T17:43:41.993Z,4.50
2023-03-19T17:46:16.686Z,4.30
2023-03-19T17:48:45.989Z,4.53
2023-03-19T17:51:13.285Z,12.80
2023-03-19T17:53:48.792Z,5.13
2023-03-19T17:56:18.258Z,4.15
2023-03-19T18:03:04.007Z,7.20
2023-03-19T18:05:31.021Z,4.57
2023-03-19T18:07:58.185Z,4.32
2023-03-19T18:10:29.952Z,3.97
2023-03-19T18:13:00.081Z,3.88
2023-03-19T18:15:29.788Z,4.05
2023-03-19T18:17:59.268Z,4.18
2023-03-19T18:20:29.920Z,5.32
2023-03-19T18:22:56.922Z,5.80
2023-03-19T18:25:26.435Z,8.25
2023-03-19T18:27:53.977Z,4.40
2023-03-19T18:30:22.754Z,4.50
2023-03-19T18:32:59.813Z,3.85
2023-03-19T18:35:36.813Z,4.60
2023-03-19T18:38:04.107Z,4.63
2023-03-19T18:40:54.111Z,3.90
2023-03-19T18:43:21.644Z,3.60
2023-03-19T18:46:06.440Z,3.22
2023-03-19T18:48:33.870Z,2.83
2023-03-19T18:51:00.942Z,3.28
2023-03-19T18:53:29.503Z,2.75
2023-03-19T18:55:56.874Z,2.70
2023-03-19T18:58:27.012Z,2.80
2023-03-19T19:00:54.477Z,2.35
2023-03-19T19:03:28.654Z,2.70
2023-03-19T19:05:56.327Z,2.40
2023-03-19T19:08:25.383Z,2.28
2023-03-19T19:10:56.471Z,2.80
2023-03-19T19:13:27.256Z,2.30
2023-03-19T19:15:54.853Z,2.50
2023-03-19T19:18:25.187Z,2.95
2023-03-19T19:20:53.728Z,3.38
2023-03-19T19:24:30.815Z,5.97
2023-03-19T19:27:01.655Z,5.90
2023-03-19T19:29:29.768Z,6.28
2023-03-19T19:31:57.119Z,5.57
2023-03-19T19:34:24.303Z,5.65
2023-03-19T19:37:18.867Z,5.50
2023-03-19T19:39:46.581Z,5.22
2023-03-19T19:42:19.538Z,5.50
2023-03-19T19:44:59.015Z,4.88
2023-03-19T19:47:27.877Z,4.88
2023-03-19T19:49:55.028Z,4.47
2023-03-19T19:52:22.107Z,3.22
2023-03-19T19:54:51.901Z,2.83
2023-03-19T19:59:49.271Z,4.03
2023-03-19T20:02:21.740Z,2.55
2023-03-19T20:04:48.992Z,2.75
2023-03-19T20:07:16.010Z,2.22
2023-03-19T20:09:43.350Z,2.45
2023-03-19T20:12:33.014Z,2.55
2023-03-19T20:15:00.564Z,2.72
2023-03-19T20:17:28.020Z,2.55
2023-03-19T20:19:55.068Z,2.30
2023-03-19T20:22:22.046Z,2.67
2023-03-19T20:24:51.269Z,2.83
2023-03-19T20:27:22.400Z,2.88
2023-03-19T20:29:51.275Z,2.55
2023-03-19T20:32:28.352Z,2.60
2023-03-19T20:34:55.369Z,3.17
2023-03-19T20:37:22.357Z,3.20
2023-03-19T20:39:49.418Z,3.03
2023-03-19T20:42:16.951Z,2.85
2023-03-19T20:44:45.025Z,3.13
2023-03-19T20:47:19.467Z,3.20
2023-03-19T20:49:47.482Z,2.60
2023-03-19T20:52:15.005Z,2.33
2023-03-19T20:54:42.766Z,2.20
2023-03-19T20:57:15.043Z,2.45
2023-03-19T21:00:17.857Z,2.40
2023-03-19T21:02:44.906Z,1.85
2023-03-19T21:05:42.755Z,2.28
2023-03-19T21:08:17.484Z,2.00
2023-03-19T21:10:45.142Z,2.05
2023-03-19T21:13:17.913Z,2.15
2023-03-19T21:15:46.475Z,2.17
2023-03-19T21:18:13.811Z,1.83
2023-03-19T21:20:43.194Z,2.22
2023-03-19T21:23:14.460Z,2.42
2023-03-19T21:25:42.814Z,2.90
2023-03-19T21:28:23.648Z,2.95
2023-03-19T21:30:50.652Z,3.03
2023-03-19T21:33:27.672Z,3.15
2023-03-19T21:35:56.102Z,3.05
2023-03-19T21:38:24.028Z,2.92
2023-03-19T21:40:54.124Z,2.95
2023-03-19T21:43:34.551Z,2.63
2023-03-19T21:46:13.911Z,2.50
2023-03-19T21:53:14.579Z,3.33
2023-03-19T21:55:44.583Z,3.13
2023-03-19T21:58:17.871Z,2.80
2023-03-19T22:04:37.835Z,3.28
2023-03-19T22:07:04.806Z,3.83
2023-03-19T22:09:31.994Z,3.35
2023-03-19T22:11:59.058Z,3.92
2023-03-19T22:14:27.168Z,4.10
2023-03-19T22:16:56.139Z,3.30
2023-03-19T22:19:23.974Z,2.58
2023-03-19T22:21:50.959Z,2.47
2023-03-19T22:24:17.977Z,2.92
2023-03-19T22:26:47.206Z,2.95
2023-03-19T22:29:18.401Z,2.75
2023-03-19T22:31:47.903Z,2.40
2023-03-19T22:36:43.790Z,2.47
2023-03-19T22:39:10.864Z,1.80
2023-03-19T22:41:41.041Z,2.10
2023-03-19T22:44:13.260Z,2.22
2023-03-19T22:46:40.448Z,2.15
2023-03-19T22:49:14.000Z,2.03
2023-03-19T22:51:40.980Z,2.08
2023-03-19T22:54:08.866Z,2.13
2023-03-19T22:56:35.840Z,2.25
2023-03-19T22:59:02.844Z,2.35
2023-03-19T23:01:31.518Z,2.30
2023-03-19T23:04:19.919Z,2.53
2023-03-19T23:06:47.405Z,1.88
2023-03-19T23:13:32.367Z,2.03
2023-03-19T23:16:00.899Z,2.25
2023-03-19T23:18:34.219Z,2.20
2023-03-19T23:21:02.009Z,2.17
2023-03-19T23:23:30.271Z,2.05
2023-03-19T23:25:57.648Z,2.20
2023-03-19T23:28:31.340Z,2.20
2023-03-19T23:30:59.000Z,2.03
2023-03-19T23:33:29.958Z,2.22
2023-03-19T23:35:59.444Z,2.10
2023-03-19T23:38:26.632Z,1.75
2023-03-19T23:40:54.094Z,1.40
2023-03-19T23:43:25.313Z,1.65
2023-03-19T23:45:54.230Z,1.55
2023-03-19T23:48:24.932Z,1.50
2023-03-19T23:50:51.930Z,1.60
2023-03-19T23:53:27.328Z,1.80
2023-03-19T23:55:59.982Z,1.63
2023-03-19T23:58:39.900Z,1.63
